createdAt,value
2023-02-14T00:00:34.182Z,101816.28
2023-02-14T00:03:06.095Z,101815.31
2023-02-14T00:17:02.079Z,101817.97
2023-02-14T00:19:35.184Z,101823.79
2023-02-14T00:22:07.536Z,101828.06
2023-02-14T00:24:39.427Z,101825.69
2023-02-14T00:27:12.097Z,101826.59
2023-02-14T00:29:44.340Z,101823.13
2023-02-14T00:32:16.530Z,101824.77
2023-02-14T00:34:54.182Z,101830.70
2023-02-14T00:37:25.948Z,101824.97
2023-02-14T00:39:58.833Z,101826.25
2023-02-14T00:42:30.661Z,101826.36
2023-02-14T00:45:03.014Z,101823.14
2023-02-14T00:47:35.049Z,101818.96
2023-02-14T00:50:10.156Z,101809.02
2023-02-14T00:52:41.995Z,101804.48
2023-02-14T00:55:13.813Z,101805.34
2023-02-14T00:57:45.817Z,101798.84
2023-02-14T01:00:21.838Z,101796.42
2023-02-14T01:02:53.644Z,101804.27
2023-02-14T01:05:25.596Z,101809.14
2023-02-14T01:07:57.555Z,101808.05
2023-02-14T01:10:30.211Z,101806.52
2023-02-14T01:13:05.626Z,101801.26
2023-02-14T01:15:42.590Z,101805.31
2023-02-14T01:18:14.922Z,101808.32
2023-02-14T01:20:49.072Z,101806.72
2023-02-14T01:23:20.595Z,101810.17
2023-02-14T01:25:52.229Z,101814.04
2023-02-14T01:28:24.241Z,101808.36
2023-02-14T01:30:55.885Z,101816.04
2023-02-14T01:33:27.877Z,101813.69
2023-02-14T01:36:00.991Z,101812.80
2023-02-14T01:38:33.914Z,101809.83
2023-02-14T01:41:06.211Z,101808.95
2023-02-14T01:43:56.202Z,101814.83
2023-02-14T01:46:30.506Z,101812.83
2023-02-14T01:49:05.886Z,101810.34
2023-02-14T01:51:40.692Z,101806.55
2023-02-14T01:54:11.733Z,101808.81
2023-02-14T01:56:49.568Z,101810.55
2023-02-14T01:59:24.192Z,101804.36
2023-02-14T02:01:57.243Z,101795.94
2023-02-14T02:04:33.921Z,101801.86
2023-02-14T02:07:08.694Z,101803.59
2023-02-14T02:09:40.993Z,101803.85
2023-02-14T02:12:12.786Z,101803.44
2023-02-14T02:14:45.249Z,101800.78
2023-02-14T02:17:30.600Z,101797.66
2023-02-14T02:20:30.407Z,101805.23
2023-02-14T02:23:43.411Z,101811.23
2023-02-14T02:26:48.340Z,101817.09
2023-02-14T02:29:55.200Z,101821.02
2023-02-14T02:32:50.255Z,101820.04
2023-02-14T02:35:48.026Z,101821.45
2023-02-14T02:38:34.194Z,101825.65
2023-02-14T02:41:14.704Z,101826.04
2023-02-14T02:43:55.239Z,101825.65
2023-02-14T02:46:51.927Z,101828.62
2023-02-14T02:49:51.760Z,101828.16
2023-02-14T02:52:48.302Z,101827.89
2023-02-14T02:55:28.082Z,101832.92
2023-02-14T02:58:00.966Z,101830.61
2023-02-14T03:00:34.555Z,101834.09
2023-02-14T03:03:24.181Z,101833.60
2023-02-14T03:05:57.300Z,101832.73
2023-02-14T03:08:29.123Z,101836.38
2023-02-14T03:11:03.338Z,101839.05
2023-02-14T03:13:57.361Z,101843.73
2023-02-14T03:16:36.599Z,101840.09
2023-02-14T03:19:50.554Z,101843.20
2023-02-14T03:22:31.718Z,101851.02
2023-02-14T03:25:13.082Z,101857.40
2023-02-14T03:27:48.682Z,101857.64
2023-02-14T03:30:28.516Z,101856.71
2023-02-14T03:33:05.712Z,101860.95
2023-02-14T03:35:46.701Z,101863.02
2023-02-14T03:38:23.034Z,101858.64
2023-02-14T03:40:59.038Z,101861.65
2023-02-14T03:43:35.464Z,101859.43
2023-02-14T03:46:12.526Z,101868.39
2023-02-14T03:48:47.114Z,101862.80
2023-02-14T03:51:21.975Z,101854.74
2023-02-14T03:53:54.772Z,101860.16
2023-02-14T03:56:36.288Z,101859.19
2023-02-14T03:59:15.197Z,101861.97
2023-02-14T04:01:55.393Z,101868.14
2023-02-14T04:04:32.591Z,101860.54
2023-02-14T04:07:12.809Z,101863.14
2023-02-14T04:09:45.109Z,101863.61
2023-02-14T04:12:19.825Z,101856.73
2023-02-14T04:14:56.114Z,101863.66
2023-02-14T04:17:45.003Z,101866.64
2023-02-14T04:20:17.005Z,101860.32
2023-02-14T04:22:48.788Z,101857.97
2023-02-14T04:28:51.691Z,101866.93
2023-02-14T04:31:31.807Z,101859.16
2023-02-14T04:34:03.742Z,101866.89
2023-02-14T04:36:35.421Z,101864.52
2023-02-14T04:39:07.619Z,101857.59
2023-02-14T04:41:39.601Z,101861.04
2023-02-14T04:44:11.498Z,101862.79
2023-02-14T04:46:44.850Z,101870.00
2023-02-14T04:49:17.235Z,101877.40
2023-02-14T04:51:48.974Z,101861.44
2023-02-14T04:54:20.606Z,101873.47
2023-02-14T04:56:53.004Z,101879.58
2023-02-14T04:59:25.195Z,101883.83
2023-02-14T05:01:57.297Z,101885.95
2023-02-14T05:04:29.270Z,101884.72
2023-02-14T05:07:01.369Z,101887.64
2023-02-14T05:09:33.097Z,101888.34
2023-02-14T05:12:05.012Z,101894.31
2023-02-14T05:14:36.713Z,101896.11
2023-02-14T05:17:08.306Z,101896.96
2023-02-14T05:19:40.281Z,101900.86
2023-02-14T05:22:11.975Z,101904.70
2023-02-14T05:24:43.992Z,101906.61
2023-02-14T05:27:15.661Z,101901.92
2023-02-14T05:29:47.417Z,101892.99
2023-02-14T05:32:19.117Z,101901.99
2023-02-14T05:34:50.696Z,101906.52
2023-02-14T05:37:22.324Z,101906.10
2023-02-14T05:39:53.814Z,101895.73
2023-02-14T05:42:25.550Z,101900.42
2023-02-14T05:44:57.227Z,101910.00
2023-02-14T05:47:29.077Z,101908.90
2023-02-14T05:50:00.936Z,101907.31
2023-02-14T05:52:32.817Z,101902.96
2023-02-14T05:55:04.656Z,101914.30
2023-02-14T05:57:36.569Z,101926.08
2023-02-14T06:00:11.042Z,101926.18
2023-02-14T06:02:42.826Z,101923.96
2023-02-14T06:05:15.283Z,101922.59
2023-02-14T06:07:50.904Z,101926.86
2023-02-14T06:10:26.191Z,101931.39
2023-02-14T06:12:57.947Z,101934.17
2023-02-14T06:15:30.009Z,101936.29
2023-02-14T06:18:01.814Z,101935.76
2023-02-14T06:20:34.276Z,101933.52
2023-02-14T06:23:05.911Z,101937.84
2023-02-14T06:25:37.702Z,101939.36
2023-02-14T06:28:09.442Z,101942.05
2023-02-14T06:30:41.435Z,101943.77
2023-02-14T06:33:13.369Z,101945.94
2023-02-14T06:35:45.353Z,101945.03
2023-02-14T06:38:17.159Z,101945.48
2023-02-14T06:40:49.357Z,101941.67
2023-02-14T06:43:21.134Z,101944.34
2023-02-14T06:45:53.721Z,101944.67
2023-02-14T06:48:25.422Z,101940.60
2023-02-14T06:50:59.116Z,101944.80
2023-02-14T06:53:31.533Z,101950.33
2023-02-14T06:56:04.761Z,101959.48
2023-02-14T06:58:36.980Z,101960.71
2023-02-14T07:01:10.891Z,101952.75
2023-02-14T07:03:44.562Z,101960.36
2023-02-14T07:06:16.953Z,101960.39
2023-02-14T07:08:48.652Z,101961.15
2023-02-14T07:11:21.741Z,101960.27
2023-02-14T07:13:53.422Z,101955.98
2023-02-14T07:16:24.910Z,101960.61
2023-02-14T07:18:56.726Z,101959.31
2023-02-14T07:21:28.958Z,101956.97
2023-02-14T07:24:01.503Z,101956.56
2023-02-14T07:26:33.656Z,101963.79
2023-02-14T07:29:08.989Z,101968.52
2023-02-14T07:31:41.024Z,101974.26
2023-02-14T07:34:12.761Z,101976.80
2023-02-14T07:36:45.005Z,101973.19
2023-02-14T07:39:17.345Z,101977.48
2023-02-14T07:41:49.340Z,101983.52
2023-02-14T07:44:21.262Z,101978.70
2023-02-14T07:46:53.971Z,101978.95
2023-02-14T07:49:26.718Z,101978.20
2023-02-14T07:51:58.390Z,101981.42
2023-02-14T07:54:30.215Z,101985.70
2023-02-14T07:57:03.803Z,101988.52
2023-02-14T07:59:35.359Z,101988.61
2023-02-14T08:02:07.093Z,101991.86
2023-02-14T08:04:39.492Z,101989.72
2023-02-14T08:07:11.141Z,101985.48
2023-02-14T08:09:42.915Z,101991.89
2023-02-14T08:12:31.904Z,101988.92
2023-02-14T08:15:17.268Z,101990.00
2023-02-14T08:17:50.291Z,101992.53
2023-02-14T08:20:22.244Z,101997.50
2023-02-14T08:22:55.253Z,101992.90
2023-02-14T08:25:26.966Z,101990.73
2023-02-14T08:27:58.598Z,101994.52
2023-02-14T08:30:30.263Z,102004.21
2023-02-14T08:33:01.955Z,102005.62
2023-02-14T08:35:33.788Z,102003.19
2023-02-14T08:38:06.273Z,102000.02
2023-02-14T08:40:38.592Z,102012.55
2023-02-14T08:43:11.339Z,102015.95
2023-02-14T08:45:43.708Z,102010.90
2023-02-14T08:48:16.508Z,102015.13
2023-02-14T08:50:48.179Z,102015.89
2023-02-14T08:53:19.934Z,102016.32
2023-02-14T08:55:51.737Z,102016.67
2023-02-14T08:58:23.401Z,102020.40
2023-02-14T09:00:56.094Z,102020.48
2023-02-14T09:03:27.873Z,102020.27
2023-02-14T09:06:04.277Z,102011.23
2023-02-14T09:08:36.310Z,102020.05
2023-02-14T09:11:12.943Z,102023.77
2023-02-14T09:13:48.798Z,102025.88
2023-02-14T09:16:22.711Z,102023.48
2023-02-14T09:18:57.087Z,102026.69
2023-02-14T09:21:30.479Z,102028.27
2023-02-14T09:24:02.337Z,102027.10
2023-02-14T09:26:34.220Z,102030.91
2023-02-14T09:29:05.844Z,102030.36
2023-02-14T09:31:38.425Z,102032.22
2023-02-14T09:34:10.639Z,102034.61
2023-02-14T09:37:01.304Z,102029.90
2023-02-14T09:39:33.044Z,102037.11
2023-02-14T09:42:42.777Z,102040.56
2023-02-14T09:45:19.432Z,102041.54
2023-02-14T09:47:56.688Z,102047.51
2023-02-14T09:50:35.024Z,102048.23
2023-02-14T09:53:15.966Z,102045.29
2023-02-14T09:55:53.770Z,102043.85
2023-02-14T09:58:30.769Z,102043.02
2023-02-14T10:01:12.552Z,102046.52
2023-02-14T10:04:17.965Z,102045.48
2023-02-14T10:07:02.299Z,102050.34
2023-02-14T10:09:57.869Z,102052.20
2023-02-14T10:12:31.220Z,102051.21
2023-02-14T10:15:09.357Z,102050.46
2023-02-14T10:17:49.272Z,102047.54
2023-02-14T10:20:28.976Z,102041.98
2023-02-14T10:23:08.477Z,102040.68
2023-02-14T10:25:47.037Z,102038.48
2023-02-14T10:28:24.287Z,102024.48
2023-02-14T10:31:07.696Z,102037.80
2023-02-14T10:33:43.696Z,102037.37
2023-02-14T10:36:23.017Z,102039.45
2023-02-14T10:39:04.245Z,102034.04
2023-02-14T10:41:44.671Z,102032.89
2023-02-14T10:44:31.906Z,102037.04
2023-02-14T10:47:11.892Z,102038.14
2023-02-14T10:49:52.898Z,102035.95
2023-02-14T10:52:35.646Z,102032.00
2023-02-14T10:55:31.389Z,102028.23
2023-02-14T10:58:07.861Z,102021.83
2023-02-14T11:00:45.610Z,102023.33
2023-02-14T11:03:18.020Z,102021.95
2023-02-14T11:05:51.339Z,102023.62
2023-02-14T11:08:28.413Z,102019.83
2023-02-14T11:11:06.739Z,102022.77
2023-02-14T11:13:40.533Z,102021.37
2023-02-14T11:16:14.507Z,102021.31
2023-02-14T11:18:46.238Z,102014.25
2023-02-14T11:21:21.441Z,102017.46
2023-02-14T11:23:54.189Z,102020.67
2023-02-14T11:26:28.966Z,102013.35
2023-02-14T11:29:01.156Z,102012.19
2023-02-14T11:31:36.058Z,102013.79
2023-02-14T11:34:23.743Z,102013.38
2023-02-14T11:36:55.636Z,102009.70
2023-02-14T11:39:32.882Z,102007.31
2023-02-14T11:42:07.276Z,102012.10
2023-02-14T11:44:44.358Z,102012.11
2023-02-14T11:47:31.975Z,102009.59
2023-02-14T11:50:07.591Z,102008.81
2023-02-14T11:52:54.469Z,102010.08
2023-02-14T11:55:29.971Z,102003.27
2023-02-14T11:58:03.353Z,102001.02
2023-02-14T12:00:35.749Z,102001.38
2023-02-14T12:03:09.713Z,102002.39
2023-02-14T12:05:50.612Z,102002.00
2023-02-14T12:08:28.475Z,102002.94
2023-02-14T12:11:13.314Z,102001.64
2023-02-14T12:13:53.208Z,102002.99
2023-02-14T12:16:29.595Z,102000.16
2023-02-14T12:19:04.575Z,102000.04
2023-02-14T12:21:54.835Z,101993.71
2023-02-14T12:24:35.246Z,101990.26
2023-02-14T12:27:20.372Z,101991.13
2023-02-14T12:29:53.102Z,101987.67
2023-02-14T12:32:30.312Z,101990.91
2023-02-14T12:35:06.471Z,101988.27
2023-02-14T12:38:02.753Z,101985.13
2023-02-14T12:40:48.090Z,101978.80
2023-02-14T12:43:51.023Z,101982.09
2023-02-14T12:46:37.602Z,101975.44
2023-02-14T12:49:30.366Z,101978.12
2023-02-14T12:52:11.227Z,101980.61
2023-02-14T12:54:59.362Z,101980.80
2023-02-14T12:57:43.285Z,101978.00
2023-02-14T13:00:32.321Z,101969.74
2023-02-14T13:03:28.131Z,101968.09
2023-02-14T13:06:06.541Z,101967.28
2023-02-14T13:09:04.282Z,101964.86
2023-02-14T13:11:46.772Z,101960.94
2023-02-14T13:14:33.665Z,101957.81
2023-02-14T13:17:13.896Z,101962.61
2023-02-14T13:19:53.789Z,101962.08
2023-02-14T13:22:28.919Z,101967.20
2023-02-14T13:25:05.229Z,101971.09
2023-02-14T13:27:41.833Z,101971.23
2023-02-14T13:30:26.809Z,101963.48
2023-02-14T13:33:02.257Z,101963.75
2023-02-14T13:35:34.986Z,101967.33
2023-02-14T13:38:14.587Z,101968.30
2023-02-14T13:40:47.159Z,101967.42
2023-02-14T13:43:48.769Z,101969.58
2023-02-14T13:46:23.657Z,101963.91
2023-02-14T13:49:03.963Z,101960.67
2023-02-14T13:51:53.973Z,101957.58
2023-02-14T13:54:33.217Z,101956.13
2023-02-14T13:57:25.625Z,101961.17
2023-02-14T14:00:36.982Z,101964.54
2023-02-14T14:03:09.552Z,101965.73
2023-02-14T14:06:03.365Z,101967.77
2023-02-14T14:08:47.278Z,101966.67
2023-02-14T14:11:57.546Z,101965.43
2023-02-14T14:14:40.197Z,101962.77
2023-02-14T14:17:27.976Z,101962.40
2023-02-14T14:19:59.966Z,101960.80
2023-02-14T14:22:32.470Z,101959.33
2023-02-14T14:25:09.387Z,101956.90
2023-02-14T14:27:46.538Z,101959.66
2023-02-14T14:30:25.758Z,101961.58
2023-02-14T14:32:57.501Z,101963.80
2023-02-14T14:35:29.226Z,101961.77
2023-02-14T14:38:03.457Z,101963.73
2023-02-14T14:40:37.552Z,101966.33
2023-02-14T14:43:18.157Z,101965.21
2023-02-14T14:45:53.190Z,101964.27
2023-02-14T14:48:32.639Z,101965.25
2023-02-14T14:51:05.000Z,101968.98
2023-02-14T14:53:44.713Z,101969.48
2023-02-14T14:56:22.880Z,101966.41
2023-02-14T14:58:54.685Z,101973.70
2023-02-14T15:01:38.792Z,101967.95
2023-02-14T15:04:18.262Z,101968.31
2023-02-14T15:06:51.470Z,101964.11
2023-02-14T15:09:31.294Z,101966.23
2023-02-14T15:12:21.811Z,101970.98
2023-02-14T15:14:55.194Z,101970.65
2023-02-14T15:17:31.012Z,101972.73
2023-02-14T15:20:06.130Z,101977.31
2023-02-14T15:22:44.782Z,101975.63
2023-02-14T15:25:21.407Z,101976.89
2023-02-14T15:27:54.003Z,101973.13
2023-02-14T15:30:34.360Z,101975.07
2023-02-14T15:33:07.658Z,101978.23
2023-02-14T15:35:44.255Z,101981.16
2023-02-14T15:38:17.804Z,101976.69
2023-02-14T15:40:50.402Z,101983.21
2023-02-14T15:43:32.420Z,101980.58
2023-02-14T15:46:20.078Z,101981.73
2023-02-14T15:48:52.707Z,101987.77
2023-02-14T15:51:26.472Z,101986.21
2023-02-14T15:54:00.141Z,101986.23
2023-02-14T15:56:35.286Z,101986.56
2023-02-14T15:59:09.324Z,101991.45
2023-02-14T16:01:44.471Z,101993.08
2023-02-14T16:04:16.805Z,101996.45
2023-02-14T16:06:50.251Z,102002.73
2023-02-14T16:09:30.122Z,102000.76
2023-02-14T16:12:03.323Z,101997.13
2023-02-14T16:14:36.781Z,102000.86
2023-02-14T16:17:13.812Z,102003.98
2023-02-14T16:19:50.082Z,102006.09
2023-02-14T16:22:32.713Z,102007.71
2023-02-14T16:25:05.438Z,102008.05
2023-02-14T16:27:37.198Z,102011.08
2023-02-14T16:30:20.414Z,102010.13
2023-02-14T16:33:02.263Z,102013.17
2023-02-14T16:35:36.237Z,102009.95
2023-02-14T16:38:17.239Z,102016.30
2023-02-14T16:40:51.532Z,102011.67
2023-02-14T16:43:24.858Z,102016.98
2023-02-14T16:45:57.732Z,102018.73
2023-02-14T16:48:34.032Z,102017.67
2023-02-14T16:51:06.934Z,102015.11
2023-02-14T16:53:44.209Z,102015.92
2023-02-14T16:56:26.340Z,102008.83
2023-02-14T16:59:01.986Z,102012.38
2023-02-14T17:01:35.866Z,102013.77
2023-02-14T17:04:07.794Z,102016.17
2023-02-14T17:06:43.678Z,102014.92
2023-02-14T17:09:18.444Z,102020.15
2023-02-14T17:11:50.197Z,102018.67
2023-02-14T17:14:29.462Z,102021.05
2023-02-14T17:17:02.255Z,102026.09
2023-02-14T17:19:36.434Z,102025.98
2023-02-14T17:22:11.090Z,102024.64
2023-02-14T17:24:45.224Z,102021.38
2023-02-14T17:27:20.747Z,102023.73
2023-02-14T17:29:59.404Z,102021.90
2023-02-14T17:32:32.101Z,102023.38
2023-02-14T17:35:07.527Z,102021.71
2023-02-14T17:37:44.115Z,102021.39
2023-02-14T17:40:18.075Z,102012.70
2023-02-14T17:42:54.438Z,102015.05
2023-02-14T17:45:28.304Z,102010.23
2023-02-14T17:48:02.263Z,102014.79
2023-02-14T17:50:35.574Z,102017.08
2023-02-14T17:53:09.980Z,102017.70
2023-02-14T17:55:43.815Z,102016.23
2023-02-14T17:58:17.382Z,102015.28
2023-02-14T18:00:54.105Z,102016.67
2023-02-14T18:03:26.835Z,102012.17
2023-02-14T18:06:01.613Z,102014.96
2023-02-14T18:08:33.787Z,102014.60
2023-02-14T18:11:09.476Z,102011.79
2023-02-14T18:13:43.270Z,102014.03
2023-02-14T18:16:23.513Z,102014.12
2023-02-14T18:18:58.679Z,102010.55
2023-02-14T18:21:35.334Z,102013.09
2023-02-14T18:24:09.084Z,102011.93
2023-02-14T18:26:47.183Z,102012.13
2023-02-14T18:29:30.351Z,102010.23
2023-02-14T18:32:06.264Z,102011.55
2023-02-14T18:34:43.907Z,102013.55
2023-02-14T18:37:22.539Z,102015.34
2023-02-14T18:39:57.808Z,102019.70
2023-02-14T18:42:31.476Z,102015.65
2023-02-14T18:45:06.404Z,102019.81
2023-02-14T18:47:45.773Z,102015.10
2023-02-14T18:50:30.450Z,102019.45
2023-02-14T18:53:08.065Z,102023.73
2023-02-14T18:55:43.662Z,102022.65
2023-02-14T18:58:18.016Z,102020.98
2023-02-14T19:01:04.668Z,102022.49
2023-02-14T19:03:43.777Z,102022.16
2023-02-14T19:06:21.384Z,102021.98
2023-02-14T19:08:57.129Z,102020.92
2023-02-14T19:11:33.468Z,102018.13
2023-02-14T19:14:12.194Z,102020.73
2023-02-14T19:16:53.270Z,102020.08
2023-02-14T19:19:28.526Z,102022.18
2023-02-14T19:22:05.778Z,102030.27
2023-02-14T19:24:48.142Z,102028.95
2023-02-14T19:27:24.972Z,102028.65
2023-02-14T19:30:03.146Z,102026.63
2023-02-14T19:32:41.106Z,102029.33
2023-02-14T19:35:16.423Z,102033.00
2023-02-14T19:37:53.100Z,102030.41
2023-02-14T19:40:27.628Z,102030.08
2023-02-14T19:43:06.992Z,102031.16
2023-02-14T19:45:45.473Z,102028.86
2023-02-14T19:48:22.384Z,102026.33
2023-02-14T19:51:00.393Z,102029.37
2023-02-14T19:53:48.295Z,102029.68
2023-02-14T19:56:28.645Z,102028.56
2023-02-14T19:59:16.416Z,102031.45
2023-02-14T20:02:25.468Z,102023.10
2023-02-14T20:05:06.397Z,102019.06
2023-02-14T20:07:44.538Z,102020.45
2023-02-14T20:10:22.556Z,102022.60
2023-02-14T20:13:00.954Z,102018.34
2023-02-14T20:15:47.427Z,102021.22
2023-02-14T20:18:23.404Z,102019.29
2023-02-14T20:21:10.718Z,102024.10
2023-02-14T20:23:55.573Z,102022.92
2023-02-14T20:26:33.333Z,102020.66
2023-02-14T20:29:10.727Z,102014.63
2023-02-14T20:31:53.604Z,102019.85
2023-02-14T20:34:29.595Z,102020.96
2023-02-14T20:37:05.257Z,102016.48
2023-02-14T20:39:45.180Z,102016.86
2023-02-14T20:42:29.482Z,102010.89
2023-02-14T20:45:06.108Z,102019.39
2023-02-14T20:47:41.583Z,102019.29
2023-02-14T20:50:19.035Z,102010.34
2023-02-14T20:52:54.001Z,102008.36
2023-02-14T20:55:27.892Z,102012.02
2023-02-14T20:58:08.055Z,102014.66
2023-02-14T21:00:51.932Z,102012.23
2023-02-14T21:03:29.357Z,102013.23
2023-02-14T21:06:04.192Z,102017.23
2023-02-14T21:08:38.923Z,102018.29
2023-02-14T21:11:18.959Z,102014.41
2023-02-14T21:13:59.258Z,102016.23
2023-02-14T21:16:38.050Z,102013.79
2023-02-14T21:19:14.161Z,102017.55
2023-02-14T21:21:48.572Z,102016.90
2023-02-14T21:24:25.158Z,102015.80
2023-02-14T21:27:05.337Z,102016.39
2023-02-14T21:29:40.547Z,102024.48
2023-02-14T21:32:17.578Z,102022.23
2023-02-14T21:34:53.042Z,102026.45
2023-02-14T21:37:28.248Z,102026.36
2023-02-14T21:40:18.292Z,102020.29
2023-02-14T21:43:17.555Z,102018.57
2023-02-14T21:45:58.355Z,102016.41
2023-02-14T21:49:04.120Z,102008.25
2023-02-14T21:51:39.623Z,102011.01
2023-02-14T21:54:14.328Z,102004.73
2023-02-14T21:56:51.486Z,102007.70
2023-02-14T21:59:27.736Z,101995.80
2023-02-14T22:02:02.757Z,101999.63
2023-02-14T22:04:40.034Z,102003.23
2023-02-14T22:07:14.682Z,101993.89
2023-02-14T22:09:47.530Z,101995.39
2023-02-14T22:12:22.439Z,101997.39
2023-02-14T22:14:54.431Z,101997.56
2023-02-14T22:17:28.908Z,101999.52
2023-02-14T22:20:01.616Z,101994.75
2023-02-14T22:22:36.018Z,101998.69
2023-02-14T22:25:08.655Z,101995.96
2023-02-14T22:27:42.967Z,101992.77
2023-02-14T22:30:28.204Z,101994.83
2023-02-14T22:33:03.686Z,101993.43
2023-02-14T22:35:36.054Z,101981.35
2023-02-14T22:38:12.926Z,101989.64
2023-02-14T22:40:44.777Z,101982.39
2023-02-14T22:43:18.132Z,101985.61
2023-02-14T22:45:52.168Z,101988.45
2023-02-14T22:48:31.309Z,101990.17
2023-02-14T22:51:11.323Z,101990.61
2023-02-14T22:53:43.757Z,101991.97
2023-02-14T22:56:19.292Z,101988.08
2023-02-14T22:58:54.321Z,101975.25
2023-02-14T23:01:27.506Z,101978.52
2023-02-14T23:04:00.725Z,101970.19
2023-02-14T23:06:41.525Z,101974.98
2023-02-14T23:09:14.528Z,101971.23
2023-02-14T23:11:49.149Z,101971.25
2023-02-14T23:14:39.771Z,101971.18
2023-02-14T23:17:34.779Z,101969.39
2023-02-14T23:20:24.349Z,101966.52
2023-02-14T23:22:57.452Z,101971.23
2023-02-14T23:25:29.097Z,101970.79
2023-02-14T23:28:01.479Z,101966.09
2023-02-14T23:30:33.383Z,101968.79
2023-02-14T23:33:05.102Z,101968.23
2023-02-14T23:35:39.390Z,101964.17
2023-02-14T23:38:11.186Z,101962.55
2023-02-14T23:40:56.454Z,101958.20
2023-02-14T23:43:28.181Z,101966.71
2023-02-14T23:46:02.850Z,101965.82
2023-02-14T23:48:33.619Z,101966.04
2023-02-14T23:51:05.370Z,101966.95
2023-02-14T23:53:38.682Z,101967.96
2023-02-14T23:56:10.476Z,101967.27
2023-02-14T23:58:43.338Z,101965.42
